createdAt,value
2017-09-16T00:00:33.818Z,6.37
2017-09-16T00:03:06.343Z,5.63
2017-09-16T00:05:37.952Z,4.43
2017-09-16T00:08:09.463Z,3.87
2017-09-16T00:10:42.603Z,5.27
2017-09-16T00:13:15.460Z,4.70
2017-09-16T00:15:55.652Z,6.10
2017-09-16T00:18:30.308Z,3.77
2017-09-16T00:21:06.336Z,3.13
2017-09-16T00:27:10.279Z,4.03
2017-09-16T00:29:45.873Z,5.37
2017-09-16T00:32:20.577Z,5.97
2017-09-16T00:34:55.185Z,4.87
2017-09-16T00:37:31.491Z,2.27
2017-09-16T00:40:04.620Z,2.37
2017-09-16T00:42:39.389Z,2.63
2017-09-16T00:45:19.833Z,1.97
2017-09-16T00:47:55.692Z,3.20
2017-09-16T00:50:29.686Z,4.20
2017-09-16T00:53:04.910Z,5.90
2017-09-16T00:55:39.763Z,2.30
2017-09-16T00:58:10.841Z,3.17
2017-09-16T01:00:42.309Z,3.00
2017-09-16T01:03:13.435Z,2.63
2017-09-16T01:05:45.622Z,3.30
2017-09-16T01:08:17.591Z,2.97
2017-09-16T01:10:51.289Z,1.77
2017-09-16T01:13:22.038Z,3.00
2017-09-16T01:15:53.168Z,3.33
2017-09-16T01:18:26.314Z,2.80
2017-09-16T01:20:58.082Z,2.30
2017-09-16T01:23:40.811Z,2.80
2017-09-16T01:26:32.104Z,2.43
2017-09-16T01:29:04.197Z,3.67
2017-09-16T01:31:35.904Z,4.40
2017-09-16T01:34:08.358Z,7.23
2017-09-16T01:36:40.193Z,5.50
2017-09-16T01:39:11.827Z,7.57
2017-09-16T01:41:44.210Z,3.40
2017-09-16T01:45:03.748Z,6.40
2017-09-16T01:47:37.912Z,7.03
2017-09-16T01:50:16.611Z,3.40
2017-09-16T01:53:07.495Z,8.20
2017-09-16T01:55:45.334Z,7.60
2017-09-16T01:58:17.414Z,5.77
2017-09-16T02:00:49.213Z,5.97
2017-09-16T02:03:20.878Z,7.13
2017-09-16T02:05:52.674Z,7.90
2017-09-16T02:08:25.124Z,6.40
2017-09-16T02:10:56.631Z,7.23
2017-09-16T02:13:28.435Z,7.03
2017-09-16T02:16:01.665Z,4.70
2017-09-16T02:18:35.852Z,7.33
2017-09-16T02:21:10.071Z,7.33
2017-09-16T02:23:44.525Z,6.20
2017-09-16T02:26:20.282Z,6.10
2017-09-16T02:28:54.708Z,7.93
2017-09-16T02:31:27.421Z,9.00
2017-09-16T02:34:02.153Z,7.73
2017-09-16T02:36:36.046Z,9.87
2017-09-16T02:39:10.387Z,9.20
2017-09-16T02:41:43.302Z,8.30
2017-09-16T02:44:19.892Z,8.07
2017-09-16T02:46:51.684Z,8.33
2017-09-16T02:49:24.294Z,8.43
2017-09-16T02:51:59.913Z,8.50
2017-09-16T02:54:32.276Z,9.17
2017-09-16T02:57:05.295Z,9.67
2017-09-16T02:59:39.521Z,8.50
2017-09-16T03:02:12.821Z,9.43
2017-09-16T03:04:46.087Z,9.80
2017-09-16T03:07:19.554Z,8.13
2017-09-16T03:09:52.993Z,8.30
2017-09-16T03:12:27.121Z,9.67
2017-09-16T03:15:00.231Z,10.27
2017-09-16T03:17:33.626Z,9.00
2017-09-16T03:20:06.026Z,9.50
2017-09-16T03:22:39.293Z,10.87
2017-09-16T03:25:12.586Z,11.40
2017-09-16T03:27:44.855Z,9.60
2017-09-16T03:30:18.070Z,10.67
2017-09-16T03:32:51.566Z,8.70
2017-09-16T03:35:33.513Z,6.77
2017-09-16T03:38:11.540Z,8.50
2017-09-16T03:40:44.432Z,10.57
2017-09-16T03:43:21.688Z,4.47
2017-09-16T03:45:56.937Z,7.90
2017-09-16T03:48:29.567Z,8.23
2017-09-16T03:51:07.224Z,8.57
2017-09-16T03:53:44.686Z,5.60
2017-09-16T03:59:04.832Z,6.27
2017-09-16T04:01:51.841Z,5.67
2017-09-16T04:04:26.131Z,5.50
2017-09-16T04:07:00.171Z,7.73
2017-09-16T04:09:34.232Z,6.93
2017-09-16T04:12:08.299Z,7.03
2017-09-16T04:14:42.171Z,7.53
2017-09-16T04:17:16.211Z,9.63
2017-09-16T04:19:51.039Z,5.40
2017-09-16T04:22:25.211Z,6.60
2017-09-16T04:25:02.354Z,6.30
2017-09-16T04:27:38.515Z,10.37
2017-09-16T04:30:16.158Z,5.97
2017-09-16T04:32:48.503Z,5.20
2017-09-16T04:35:22.791Z,4.90
2017-09-16T04:37:56.854Z,6.60
2017-09-16T04:40:32.354Z,6.43
2017-09-16T04:43:07.222Z,4.77
2017-09-16T04:55:00.458Z,4.30
2017-09-16T04:57:33.659Z,6.70
2017-09-16T05:00:07.816Z,7.80
2017-09-16T05:02:41.661Z,9.90
2017-09-16T05:05:22.606Z,6.10
2017-09-16T05:07:55.681Z,5.70
2017-09-16T05:10:28.958Z,6.70
2017-09-16T05:13:02.862Z,6.20
2017-09-16T05:15:39.042Z,7.80
2017-09-16T05:18:15.237Z,6.30
2017-09-16T05:20:50.512Z,6.60
2017-09-16T05:23:25.087Z,5.80
2017-09-16T05:25:58.396Z,4.10
2017-09-16T05:28:31.957Z,5.13
2017-09-16T05:31:05.695Z,5.03
2017-09-16T05:33:39.853Z,6.30
2017-09-16T05:36:12.261Z,4.20
2017-09-16T05:38:44.726Z,5.67
2017-09-16T05:41:31.313Z,6.10
2017-09-16T05:44:08.777Z,6.17
2017-09-16T05:46:50.077Z,6.07
2017-09-16T05:49:23.930Z,3.97
2017-09-16T05:51:58.813Z,5.77
2017-09-16T05:54:37.270Z,4.00
2017-09-16T05:57:11.379Z,5.00
2017-09-16T05:59:43.943Z,3.80
2017-09-16T06:02:26.447Z,4.47
2017-09-16T06:05:06.136Z,4.80
2017-09-16T06:07:37.372Z,5.83
2017-09-16T06:10:10.768Z,6.70
2017-09-16T06:12:42.569Z,6.60
2017-09-16T06:15:15.627Z,7.77
2017-09-16T06:17:49.932Z,7.97
2017-09-16T06:20:23.377Z,9.73
2017-09-16T06:22:56.441Z,12.50
2017-09-16T06:25:31.317Z,10.43
2017-09-16T06:28:04.021Z,13.60
2017-09-16T06:30:38.838Z,13.57
2017-09-16T06:33:11.600Z,12.50
2017-09-16T06:35:57.116Z,14.73
2017-09-16T06:38:29.941Z,12.80
2017-09-16T06:41:05.419Z,11.30
2017-09-16T06:43:40.279Z,9.57
2017-09-16T06:46:26.516Z,12.80
2017-09-16T06:48:59.956Z,11.80
2017-09-16T06:51:33.261Z,11.67
2017-09-16T06:54:04.748Z,10.80
2017-09-16T06:56:37.093Z,12.50
2017-09-16T06:59:09.460Z,10.87
2017-09-16T07:01:43.712Z,10.93
2017-09-16T07:04:22.219Z,10.70
2017-09-16T07:10:03.429Z,11.03
2017-09-16T07:12:54.131Z,10.10
2017-09-16T07:15:27.884Z,9.13
2017-09-16T07:17:59.096Z,10.27
2017-09-16T07:20:31.817Z,9.60
2017-09-16T07:23:14.501Z,9.17
2017-09-16T07:25:51.473Z,9.43
2017-09-16T07:28:27.898Z,8.90
2017-09-16T07:31:02.676Z,10.10
2017-09-16T07:33:35.776Z,9.07
2017-09-16T07:36:14.059Z,8.70
2017-09-16T07:38:47.412Z,9.77
2017-09-16T07:41:24.517Z,9.40
2017-09-16T07:43:58.621Z,8.90
2017-09-16T07:46:37.019Z,8.70
2017-09-16T07:49:12.939Z,8.23
2017-09-16T07:51:45.537Z,8.20
2017-09-16T07:54:28.842Z,8.23
2017-09-16T07:57:02.884Z,7.23
2017-09-16T07:59:41.590Z,7.70
2017-09-16T08:02:25.451Z,8.30
2017-09-16T08:05:00.154Z,8.20
2017-09-16T08:10:19.148Z,8.27
2017-09-16T08:12:56.612Z,8.50
2017-09-16T08:15:30.460Z,7.50
2017-09-16T08:18:06.372Z,7.80
2017-09-16T08:20:42.815Z,8.20
2017-09-16T08:28:43.581Z,8.40
2017-09-16T08:31:20.792Z,8.63
2017-09-16T08:34:07.752Z,9.17
2017-09-16T08:36:52.770Z,8.43
2017-09-16T08:39:35.970Z,8.37
2017-09-16T08:45:12.853Z,8.27
2017-09-16T08:48:01.091Z,8.83
2017-09-16T08:50:53.051Z,7.40
2017-09-16T08:53:34.309Z,8.50
2017-09-16T08:56:16.463Z,6.07
2017-09-16T08:58:57.835Z,7.40
2017-09-16T09:01:47.082Z,7.40
2017-09-16T09:04:32.877Z,7.30
2017-09-16T09:07:18.421Z,7.70
2017-09-16T09:10:06.017Z,7.63
2017-09-16T09:13:12.405Z,7.70
2017-09-16T09:16:11.904Z,8.10
2017-09-16T09:18:46.787Z,8.00
2017-09-16T09:21:36.011Z,8.93
2017-09-16T09:24:30.765Z,10.27
2017-09-16T09:27:13.212Z,10.90
2017-09-16T09:30:20.415Z,9.60
2017-09-16T09:33:20.800Z,9.83
2017-09-16T09:39:19.465Z,11.37
2017-09-16T09:41:58.605Z,10.60
2017-09-16T09:44:40.606Z,10.73
2017-09-16T09:47:18.261Z,11.13
2017-09-16T09:49:51.554Z,10.43
2017-09-16T09:52:32.306Z,11.90
2017-09-16T09:55:21.406Z,13.00
2017-09-16T10:04:03.023Z,10.60
2017-09-16T10:06:41.540Z,10.80
2017-09-16T10:09:41.457Z,10.97
2017-09-16T10:12:22.961Z,10.90
2017-09-16T10:15:17.175Z,10.10
2017-09-16T10:18:03.776Z,10.03
2017-09-16T10:20:47.664Z,10.77
2017-09-16T10:26:47.372Z,10.23
2017-09-16T10:29:23.575Z,10.67
2017-09-16T10:32:02.387Z,9.30
2017-09-16T10:34:38.005Z,9.07
2017-09-16T10:37:16.653Z,9.40
2017-09-16T10:39:55.660Z,8.80
2017-09-16T10:42:40.330Z,7.93
2017-09-16T10:45:13.303Z,9.53
2017-09-16T10:47:47.244Z,8.10
2017-09-16T10:50:24.463Z,8.17
2017-09-16T10:52:58.717Z,9.23
2017-09-16T10:55:33.610Z,8.93
2017-09-16T10:58:08.212Z,7.70
2017-09-16T11:00:56.511Z,7.30
2017-09-16T11:03:30.918Z,6.57
2017-09-16T11:06:11.024Z,6.30
2017-09-16T11:09:09.342Z,5.43
2017-09-16T11:12:00.571Z,6.10
2017-09-16T11:14:40.264Z,7.13
2017-09-16T11:20:13.994Z,7.50
2017-09-16T11:22:48.737Z,7.10
2017-09-16T11:25:29.089Z,6.07
2017-09-16T11:28:01.572Z,6.33
2017-09-16T11:30:37.914Z,5.97
2017-09-16T11:33:14.364Z,6.87
2017-09-16T11:35:48.106Z,7.10
2017-09-16T11:38:23.909Z,6.77
2017-09-16T11:41:01.481Z,6.50
2017-09-16T13:33:34.018Z,3.93
2017-09-16T13:39:22.498Z,4.90
2017-09-16T13:42:00.415Z,3.97
2017-09-16T13:44:58.714Z,3.83
2017-09-16T13:47:49.614Z,4.70
2017-09-16T13:51:24.684Z,4.73
2017-09-16T13:57:04.444Z,4.53
2017-09-16T14:00:17.091Z,3.43
2017-09-16T14:03:07.611Z,3.37
2017-09-16T14:05:54.528Z,2.70
2017-09-16T14:08:42.000Z,4.60
2017-09-16T14:11:17.024Z,3.73
2017-09-16T14:14:21.293Z,3.60
2017-09-16T14:17:18.503Z,3.50
2017-09-16T14:20:01.349Z,3.40
2017-09-16T14:26:11.846Z,3.50
2017-09-16T14:28:51.038Z,4.20
2017-09-16T14:31:30.478Z,3.70
2017-09-16T14:34:22.562Z,3.60
2017-09-16T14:39:50.862Z,3.47
2017-09-16T14:42:33.097Z,4.63
2017-09-16T14:45:20.147Z,5.70
2017-09-16T14:47:58.711Z,4.40
2017-09-16T14:50:42.676Z,4.53
2017-09-16T14:53:37.732Z,4.37
2017-09-16T14:56:14.119Z,3.70
2017-09-16T14:59:08.027Z,3.40
2017-09-16T15:01:52.956Z,3.70
2017-09-16T15:04:40.405Z,4.67
2017-09-16T15:07:24.943Z,4.57
2017-09-16T15:10:09.810Z,3.70
2017-09-16T15:12:49.639Z,3.60
2017-09-16T15:18:20.348Z,3.47
2017-09-16T15:20:54.449Z,3.47
2017-09-16T15:23:44.276Z,3.70
2017-09-16T15:26:24.954Z,3.70
2017-09-16T15:29:00.325Z,3.90
2017-09-16T15:31:42.490Z,3.90
2017-09-16T15:34:18.669Z,2.90
2017-09-16T15:37:05.432Z,2.77
2017-09-16T15:39:40.224Z,3.20
2017-09-16T15:42:17.187Z,3.50
2017-09-16T15:44:57.486Z,3.63
2017-09-16T15:47:47.455Z,3.30
2017-09-16T15:50:25.212Z,3.60
2017-09-16T15:53:07.488Z,3.50
2017-09-16T15:55:42.885Z,2.80
2017-09-16T15:58:30.635Z,2.83
2017-09-16T16:01:10.738Z,2.70
2017-09-16T16:03:51.268Z,2.77
2017-09-16T16:09:21.923Z,2.50
2017-09-16T16:14:56.799Z,2.00
2017-09-16T16:17:54.396Z,2.60
2017-09-16T16:23:30.840Z,2.50
2017-09-16T16:26:09.631Z,2.40
2017-09-16T16:28:55.662Z,2.07
2017-09-16T16:31:31.617Z,2.43
2017-09-16T16:34:08.580Z,1.90
2017-09-16T16:36:43.970Z,2.13
2017-09-16T16:39:24.486Z,2.47
2017-09-16T16:42:13.851Z,2.00
2017-09-16T16:44:46.276Z,2.10
2017-09-16T16:47:19.100Z,1.97
2017-09-16T16:49:55.302Z,2.13
2017-09-16T16:52:28.897Z,2.00
2017-09-16T16:55:03.404Z,2.00
2017-09-16T16:57:38.941Z,2.10
2017-09-16T17:00:12.237Z,2.00
2017-09-16T17:02:47.349Z,2.83
2017-09-16T17:05:29.466Z,2.70
2017-09-16T17:08:03.296Z,2.47
2017-09-16T17:10:39.206Z,3.17
2017-09-16T17:13:12.416Z,3.00
2017-09-16T17:15:43.476Z,2.63
2017-09-16T17:18:17.087Z,2.50
2017-09-16T17:20:52.151Z,2.40
2017-09-16T17:23:27.890Z,2.47
2017-09-16T17:26:11.130Z,2.40
2017-09-16T17:28:49.565Z,2.27
2017-09-16T17:31:23.719Z,2.40
2017-09-16T17:33:58.310Z,2.17
2017-09-16T17:36:30.696Z,2.80
2017-09-16T17:39:04.114Z,2.50
2017-09-16T17:41:41.470Z,2.63
2017-09-16T17:44:17.971Z,3.57
2017-09-16T17:46:50.923Z,2.50
2017-09-16T17:49:23.425Z,3.07
2017-09-16T17:51:56.266Z,3.10
2017-09-16T17:54:35.651Z,2.90
2017-09-16T17:57:11.343Z,2.50
2017-09-16T17:59:49.019Z,3.00
2017-09-16T18:02:23.753Z,2.40
2017-09-16T18:05:01.832Z,3.60
2017-09-16T18:07:41.834Z,3.00
2017-09-16T18:10:15.946Z,5.00
2017-09-16T18:12:55.399Z,5.73
2017-09-16T18:15:32.494Z,4.43
2017-09-16T18:18:18.181Z,6.10
2017-09-16T18:20:50.803Z,6.53
2017-09-16T18:23:27.714Z,7.20
2017-09-16T18:26:01.711Z,5.40
2017-09-16T18:28:36.498Z,4.83
2017-09-16T18:31:11.719Z,3.33
2017-09-16T18:33:45.660Z,4.20
2017-09-16T18:36:18.496Z,3.50
2017-09-16T18:38:51.743Z,4.20
2017-09-16T18:41:49.134Z,5.33
2017-09-16T18:44:24.092Z,8.97
2017-09-16T18:47:08.833Z,11.37
2017-09-16T18:49:43.295Z,8.87
2017-09-16T18:52:17.279Z,4.50
2017-09-16T18:54:53.799Z,4.93
2017-09-16T18:57:28.464Z,4.17
2017-09-16T19:00:03.685Z,3.93
2017-09-16T19:03:04.669Z,6.20
2017-09-16T19:05:43.491Z,5.17
2017-09-16T19:08:18.437Z,4.40
2017-09-16T19:10:54.774Z,4.80
2017-09-16T19:13:31.925Z,4.83
2017-09-16T19:16:13.301Z,5.57
2017-09-16T19:21:18.526Z,6.80
2017-09-16T19:23:56.731Z,5.47
2017-09-16T19:26:32.958Z,4.83
2017-09-16T19:29:12.233Z,4.10
2017-09-16T19:31:50.797Z,4.23
2017-09-16T19:34:24.918Z,7.77
2017-09-16T19:37:02.738Z,7.80
2017-09-16T19:39:38.040Z,8.27
2017-09-16T19:42:14.541Z,7.63
2017-09-16T19:47:40.965Z,7.87
2017-09-16T19:50:18.172Z,9.63
2017-09-16T19:52:52.837Z,11.57
2017-09-16T19:55:25.197Z,8.47
2017-09-16T19:57:57.415Z,7.73
2017-09-16T20:00:34.611Z,5.70
2017-09-16T20:03:08.344Z,6.60
2017-09-16T20:05:45.495Z,4.40
2017-09-16T20:08:28.621Z,4.07
2017-09-16T20:11:03.220Z,3.47
2017-09-16T20:13:37.268Z,5.47
2017-09-16T20:16:10.076Z,4.60
2017-09-16T20:18:49.118Z,5.90
2017-09-16T20:21:26.389Z,5.57
2017-09-16T20:24:10.168Z,5.30
2017-09-16T20:26:42.971Z,5.50
2017-09-16T20:29:17.634Z,5.30
2017-09-16T20:32:00.877Z,5.70
2017-09-16T20:34:39.487Z,7.10
2017-09-16T20:37:12.121Z,6.37
2017-09-16T20:39:46.042Z,5.30
2017-09-16T20:42:20.226Z,5.20
2017-09-16T20:44:54.354Z,6.00
2017-09-16T20:47:57.510Z,5.40
2017-09-16T20:50:47.165Z,7.60
2017-09-16T20:53:22.629Z,7.70
2017-09-16T20:55:56.496Z,9.17
2017-09-16T20:58:39.255Z,9.40
2017-09-16T21:01:21.316Z,9.53
2017-09-16T21:03:56.856Z,8.67
2017-09-16T21:06:34.989Z,4.37
2017-09-16T21:09:10.436Z,5.83
2017-09-16T21:12:15.611Z,5.63
2017-09-16T21:14:57.051Z,7.40
2017-09-16T21:18:02.675Z,5.90
2017-09-16T21:20:37.018Z,6.03
2017-09-16T21:23:11.220Z,7.50
2017-09-16T21:25:43.880Z,7.70
2017-09-16T21:28:15.408Z,5.40
2017-09-16T21:30:55.065Z,5.87
2017-09-16T21:33:26.220Z,6.00
2017-09-16T21:36:01.074Z,6.60
2017-09-16T21:38:32.521Z,8.03
2017-09-16T21:41:04.108Z,8.17
2017-09-16T21:43:38.367Z,9.17
2017-09-16T21:46:09.577Z,7.57
2017-09-16T21:48:41.615Z,6.67
2017-09-16T21:51:16.177Z,8.90
2017-09-16T21:53:50.157Z,8.10
2017-09-16T21:56:28.634Z,6.40
2017-09-16T21:58:59.827Z,6.20
2017-09-16T22:01:31.192Z,9.20
2017-09-16T22:04:07.337Z,7.43
2017-09-16T22:06:48.800Z,7.70
2017-09-16T22:09:22.017Z,7.73
2017-09-16T22:11:58.942Z,6.57
2017-09-16T22:14:45.409Z,5.77
2017-09-16T22:17:19.423Z,4.63
2017-09-16T22:19:51.236Z,4.70
2017-09-16T22:22:23.230Z,4.50
2017-09-16T22:24:55.874Z,4.40
2017-09-16T22:27:28.583Z,4.60
2017-09-16T22:30:09.063Z,4.60
2017-09-16T22:32:41.160Z,4.00
2017-09-16T22:35:18.430Z,3.33
2017-09-16T22:37:49.250Z,3.60
2017-09-16T22:40:20.898Z,4.90
2017-09-16T22:42:55.538Z,4.30
2017-09-16T22:45:29.431Z,5.30
2017-09-16T22:48:01.961Z,4.20
2017-09-16T22:50:34.264Z,4.70
2017-09-16T22:53:05.851Z,5.10
2017-09-16T22:55:41.378Z,3.83
2017-09-16T22:58:13.926Z,3.73
2017-09-16T23:00:46.213Z,3.73
2017-09-16T23:03:40.011Z,3.97
2017-09-16T23:06:15.100Z,4.27
2017-09-16T23:08:48.271Z,4.50
2017-09-16T23:11:21.385Z,5.17
2017-09-16T23:13:53.676Z,4.63
2017-09-16T23:16:24.950Z,4.90
2017-09-16T23:18:58.898Z,4.80
2017-09-16T23:21:37.495Z,3.90
2017-09-16T23:24:10.735Z,3.10
2017-09-16T23:26:43.940Z,4.00
2017-09-16T23:29:17.493Z,4.27
2017-09-16T23:31:52.289Z,4.60
2017-09-16T23:34:25.946Z,4.50
2017-09-16T23:37:02.358Z,5.10
2017-09-16T23:39:34.512Z,4.20
2017-09-16T23:42:09.616Z,3.73
2017-09-16T23:44:43.513Z,3.77
2017-09-16T23:47:22.185Z,18.83
2017-09-16T23:49:55.362Z,17.27
2017-09-16T23:52:28.344Z,18.00
2017-09-16T23:55:01.999Z,19.53
2017-09-16T23:57:33.852Z,20.37
